sensor_id;sensor_type;location;lat;lon;timestamp;P1;durP1;ratioP1;P2;durP2;ratioP2
72319;SDS011;60269;52.502;16.732;2023-01-15T00:00:37;10.38;;;1.13;;
72319;SDS011;60269;52.502;16.732;2023-01-15T00:04:29;2.70;;;0.43;;
72319;SDS011;60269;52.502;16.732;2023-01-15T00:08:01;7.63;;;2.42;;
72319;SDS011;60269;52.502;16.732;2023-01-15T00:11:33;2.45;;;0.32;;
72319;SDS011;60269;52.502;16.732;2023-01-15T00:15:05;5.10;;;0.53;;
72319;SDS011;60269;52.502;16.732;2023-01-15T00:18:37;9.23;;;1.00;;
72319;SDS011;60269;52.502;16.732;2023-01-15T00:22:09;5.93;;;0.75;;
72319;SDS011;60269;52.502;16.732;2023-01-15T00:25:41;3.50;;;0.57;;
72319;SDS011;60269;52.502;16.732;2023-01-15T00:29:52;7.25;;;0.60;;
72319;SDS011;60269;52.502;16.732;2023-01-15T00:33:23;2.30;;;0.40;;
72319;SDS011;60269;52.502;16.732;2023-01-15T00:36:56;1.67;;;0.28;;
72319;SDS011;60269;52.502;16.732;2023-01-15T00:40:28;3.27;;;0.40;;
72319;SDS011;60269;52.502;16.732;2023-01-15T00:44:00;3.85;;;0.50;;
72319;SDS011;60269;52.502;16.732;2023-01-15T00:47:32;2.88;;;0.50;;
72319;SDS011;60269;52.502;16.732;2023-01-15T00:51:05;1.00;;;0.20;;
72319;SDS011;60269;52.502;16.732;2023-01-15T00:54:37;6.60;;;0.50;;
72319;SDS011;60269;52.502;16.732;2023-01-15T00:58:09;2.95;;;0.30;;
72319;SDS011;60269;52.502;16.732;2023-01-15T01:01:41;3.70;;;0.40;;
72319;SDS011;60269;52.502;16.732;2023-01-15T01:05:13;1.60;;;0.15;;
72319;SDS011;60269;52.502;16.732;2023-01-15T01:08:45;2.35;;;0.40;;
72319;SDS011;60269;52.502;16.732;2023-01-15T01:12:18;2.75;;;0.35;;
72319;SDS011;60269;52.502;16.732;2023-01-15T01:15:51;2.67;;;1.20;;
72319;SDS011;60269;52.502;16.732;2023-01-15T01:19:24;5.05;;;0.65;;
72319;SDS011;60269;52.502;16.732;2023-01-15T01:22:56;2.33;;;0.30;;
72319;SDS011;60269;52.502;16.732;2023-01-15T01:26:29;1.77;;;0.20;;
72319;SDS011;60269;52.502;16.732;2023-01-15T01:30:01;2.47;;;0.43;;
72319;SDS011;60269;52.502;16.732;2023-01-15T01:33:33;1.88;;;0.30;;
72319;SDS011;60269;52.502;16.732;2023-01-15T01:37:08;3.93;;;0.40;;
72319;SDS011;60269;52.502;16.732;2023-01-15T01:40:40;1.10;;;0.20;;
72319;SDS011;60269;52.502;16.732;2023-01-15T01:48:03;2.47;;;0.52;;
72319;SDS011;60269;52.502;16.732;2023-01-15T01:51:42;5.00;;;0.90;;
72319;SDS011;60269;52.502;16.732;2023-01-15T01:55:19;0.85;;;0.10;;
72319;SDS011;60269;52.502;16.732;2023-01-15T01:58:53;2.67;;;0.30;;
72319;SDS011;60269;52.502;16.732;2023-01-15T02:02:26;2.13;;;0.20;;
72319;SDS011;60269;52.502;16.732;2023-01-15T02:05:59;1.85;;;0.32;;
72319;SDS011;60269;52.502;16.732;2023-01-15T02:09:33;1.88;;;0.10;;
72319;SDS011;60269;52.502;16.732;2023-01-15T02:17:14;1.10;;;0.20;;
72319;SDS011;60269;52.502;16.732;2023-01-15T02:20:58;5.05;;;0.20;;
72319;SDS011;60269;52.502;16.732;2023-01-15T02:28:15;2.23;;;0.30;;
72319;SDS011;60269;52.502;16.732;2023-01-15T02:31:49;4.13;;;0.43;;
72319;SDS011;60269;52.502;16.732;2023-01-15T02:35:24;0.60;;;0.15;;
72319;SDS011;60269;52.502;16.732;2023-01-15T02:39:01;1.10;;;0.20;;
72319;SDS011;60269;52.502;16.732;2023-01-15T02:42:35;1.40;;;0.20;;
72319;SDS011;60269;52.502;16.732;2023-01-15T02:46:10;2.35;;;0.10;;
72319;SDS011;60269;52.502;16.732;2023-01-15T02:49:45;1.37;;;0.10;;
72319;SDS011;60269;52.502;16.732;2023-01-15T02:53:20;0.77;;;0.13;;
72319;SDS011;60269;52.502;16.732;2023-01-15T02:56:56;1.67;;;0.25;;
72319;SDS011;60269;52.502;16.732;2023-01-15T03:00:31;1.15;;;0.20;;
72319;SDS011;60269;52.502;16.732;2023-01-15T03:04:18;0.57;;;0.10;;
72319;SDS011;60269;52.502;16.732;2023-01-15T03:07:59;0.80;;;0.20;;
72319;SDS011;60269;52.502;16.732;2023-01-15T03:11:34;1.92;;;0.10;;
72319;SDS011;60269;52.502;16.732;2023-01-15T03:15:15;3.97;;;0.30;;
72319;SDS011;60269;52.502;16.732;2023-01-15T03:19:11;1.83;;;0.10;;
72319;SDS011;60269;52.502;16.732;2023-01-15T03:22:58;0.63;;;0.10;;
72319;SDS011;60269;52.502;16.732;2023-01-15T03:26:33;4.00;;;0.70;;
72319;SDS011;60269;52.502;16.732;2023-01-15T03:30:10;0.43;;;0.10;;
72319;SDS011;60269;52.502;16.732;2023-01-15T03:33:44;2.78;;;0.30;;
72319;SDS011;60269;52.502;16.732;2023-01-15T03:37:17;1.75;;;0.13;;
72319;SDS011;60269;52.502;16.732;2023-01-15T03:48:58;1.65;;;0.45;;
72319;SDS011;60269;52.502;16.732;2023-01-15T03:56:34;4.50;;;0.30;;
72319;SDS011;60269;52.502;16.732;2023-01-15T04:00:20;2.15;;;0.20;;
72319;SDS011;60269;52.502;16.732;2023-01-15T04:03:57;5.13;;;0.40;;
72319;SDS011;60269;52.502;16.732;2023-01-15T04:07:31;2.65;;;0.30;;
72319;SDS011;60269;52.502;16.732;2023-01-15T04:11:04;3.08;;;0.30;;
72319;SDS011;60269;52.502;16.732;2023-01-15T04:14:37;3.72;;;0.22;;
72319;SDS011;60269;52.502;16.732;2023-01-15T04:18:09;3.07;;;0.20;;
72319;SDS011;60269;52.502;16.732;2023-01-15T04:21:41;1.73;;;0.30;;
72319;SDS011;60269;52.502;16.732;2023-01-15T04:25:13;1.90;;;0.22;;
72319;SDS011;60269;52.502;16.732;2023-01-15T04:28:44;1.03;;;0.13;;
72319;SDS011;60269;52.502;16.732;2023-01-15T04:32:17;3.30;;;0.20;;
72319;SDS011;60269;52.502;16.732;2023-01-15T04:35:49;4.35;;;0.40;;
72319;SDS011;60269;52.502;16.732;2023-01-15T04:39:20;1.80;;;0.23;;
72319;SDS011;60269;52.502;16.732;2023-01-15T04:42:54;3.55;;;0.50;;
72319;SDS011;60269;52.502;16.732;2023-01-15T04:46:45;2.03;;;0.40;;
72319;SDS011;60269;52.502;16.732;2023-01-15T04:50:18;2.58;;;0.30;;
72319;SDS011;60269;52.502;16.732;2023-01-15T04:53:50;0.93;;;0.20;;
72319;SDS011;60269;52.502;16.732;2023-01-15T04:57:22;1.55;;;0.20;;
72319;SDS011;60269;52.502;16.732;2023-01-15T05:00:54;2.05;;;0.20;;
72319;SDS011;60269;52.502;16.732;2023-01-15T05:04:27;1.70;;;0.30;;
72319;SDS011;60269;52.502;16.732;2023-01-15T05:07:59;1.17;;;0.20;;
72319;SDS011;60269;52.502;16.732;2023-01-15T05:11:33;2.05;;;0.30;;
72319;SDS011;60269;52.502;16.732;2023-01-15T05:15:07;2.33;;;0.40;;
72319;SDS011;60269;52.502;16.732;2023-01-15T05:18:40;1.52;;;0.30;;
72319;SDS011;60269;52.502;16.732;2023-01-15T05:22:13;2.05;;;0.30;;
72319;SDS011;60269;52.502;16.732;2023-01-15T05:25:45;2.60;;;0.47;;
72319;SDS011;60269;52.502;16.732;2023-01-15T05:29:17;2.80;;;0.40;;
72319;SDS011;60269;52.502;16.732;2023-01-15T05:32:52;1.15;;;0.22;;
72319;SDS011;60269;52.502;16.732;2023-01-15T05:36:26;3.63;;;0.45;;
72319;SDS011;60269;52.502;16.732;2023-01-15T05:40:00;0.87;;;0.27;;
72319;SDS011;60269;52.502;16.732;2023-01-15T05:43:32;4.32;;;0.52;;
72319;SDS011;60269;52.502;16.732;2023-01-15T05:47:04;4.53;;;0.68;;
72319;SDS011;60269;52.502;16.732;2023-01-15T05:50:38;3.03;;;0.70;;
72319;SDS011;60269;52.502;16.732;2023-01-15T05:54:12;3.28;;;0.70;;
72319;SDS011;60269;52.502;16.732;2023-01-15T05:57:46;3.08;;;0.63;;
72319;SDS011;60269;52.502;16.732;2023-01-15T06:01:19;2.30;;;0.50;;
72319;SDS011;60269;52.502;16.732;2023-01-15T06:04:53;5.27;;;0.70;;
72319;SDS011;60269;52.502;16.732;2023-01-15T06:08:25;3.03;;;0.60;;
72319;SDS011;60269;52.502;16.732;2023-01-15T06:11:57;1.70;;;0.35;;
72319;SDS011;60269;52.502;16.732;2023-01-15T06:15:29;3.77;;;0.53;;
72319;SDS011;60269;52.502;16.732;2023-01-15T06:19:01;3.95;;;0.90;;
72319;SDS011;60269;52.502;16.732;2023-01-15T06:22:35;2.35;;;0.60;;
72319;SDS011;60269;52.502;16.732;2023-01-15T06:26:13;2.07;;;0.30;;
72319;SDS011;60269;52.502;16.732;2023-01-15T06:29:47;1.98;;;0.40;;
72319;SDS011;60269;52.502;16.732;2023-01-15T06:33:19;2.05;;;0.52;;
72319;SDS011;60269;52.502;16.732;2023-01-15T06:36:51;2.63;;;0.40;;
72319;SDS011;60269;52.502;16.732;2023-01-15T06:40:23;4.80;;;0.40;;
72319;SDS011;60269;52.502;16.732;2023-01-15T06:43:57;5.03;;;0.90;;
72319;SDS011;60269;52.502;16.732;2023-01-15T06:47:48;2.78;;;0.50;;
72319;SDS011;60269;52.502;16.732;2023-01-15T06:51:22;2.83;;;0.60;;
72319;SDS011;60269;52.502;16.732;2023-01-15T06:54:54;2.30;;;0.50;;
72319;SDS011;60269;52.502;16.732;2023-01-15T06:58:26;1.85;;;0.35;;
72319;SDS011;60269;52.502;16.732;2023-01-15T07:01:59;2.60;;;0.60;;
72319;SDS011;60269;52.502;16.732;2023-01-15T07:05:31;1.35;;;0.35;;
72319;SDS011;60269;52.502;16.732;2023-01-15T07:09:03;2.53;;;0.40;;
72319;SDS011;60269;52.502;16.732;2023-01-15T07:12:36;1.52;;;0.30;;
72319;SDS011;60269;52.502;16.732;2023-01-15T07:16:08;3.97;;;0.70;;
72319;SDS011;60269;52.502;16.732;2023-01-15T07:19:58;2.28;;;0.40;;
72319;SDS011;60269;52.502;16.732;2023-01-15T07:23:30;2.20;;;0.32;;
72319;SDS011;60269;52.502;16.732;2023-01-15T07:27:02;1.43;;;0.30;;
72319;SDS011;60269;52.502;16.732;2023-01-15T07:30:34;2.45;;;0.30;;
72319;SDS011;60269;52.502;16.732;2023-01-15T07:34:06;1.67;;;0.40;;
72319;SDS011;60269;52.502;16.732;2023-01-15T07:37:39;1.87;;;0.37;;
72319;SDS011;60269;52.502;16.732;2023-01-15T07:41:11;3.92;;;0.50;;
72319;SDS011;60269;52.502;16.732;2023-01-15T07:45:01;2.30;;;0.50;;
72319;SDS011;60269;52.502;16.732;2023-01-15T07:48:52;1.77;;;0.30;;
72319;SDS011;60269;52.502;16.732;2023-01-15T07:52:42;1.50;;;0.30;;
72319;SDS011;60269;52.502;16.732;2023-01-15T07:56:14;2.65;;;0.50;;
72319;SDS011;60269;52.502;16.732;2023-01-15T07:59:47;3.17;;;0.50;;
72319;SDS011;60269;52.502;16.732;2023-01-15T08:03:19;3.70;;;0.70;;
72319;SDS011;60269;52.502;16.732;2023-01-15T08:06:51;1.85;;;0.43;;
72319;SDS011;60269;52.502;16.732;2023-01-15T08:10:23;2.50;;;0.43;;
72319;SDS011;60269;52.502;16.732;2023-01-15T08:13:56;2.23;;;0.60;;
72319;SDS011;60269;52.502;16.732;2023-01-15T08:17:48;4.22;;;0.82;;
72319;SDS011;60269;52.502;16.732;2023-01-15T08:21:21;2.97;;;0.68;;
72319;SDS011;60269;52.502;16.732;2023-01-15T08:24:53;5.03;;;1.48;;
72319;SDS011;60269;52.502;16.732;2023-01-15T08:28:26;1.70;;;0.60;;
72319;SDS011;60269;52.502;16.732;2023-01-15T08:31:58;3.92;;;1.08;;
72319;SDS011;60269;52.502;16.732;2023-01-15T08:35:33;3.83;;;0.77;;
72319;SDS011;60269;52.502;16.732;2023-01-15T08:39:05;4.83;;;0.67;;
72319;SDS011;60269;52.502;16.732;2023-01-15T08:42:37;2.53;;;0.60;;
72319;SDS011;60269;52.502;16.732;2023-01-15T08:46:09;2.28;;;0.50;;
72319;SDS011;60269;52.502;16.732;2023-01-15T08:49:42;4.13;;;0.87;;
72319;SDS011;60269;52.502;16.732;2023-01-15T08:53:13;3.20;;;0.70;;
72319;SDS011;60269;52.502;16.732;2023-01-15T08:56:46;4.78;;;0.88;;
72319;SDS011;60269;52.502;16.732;2023-01-15T09:00:20;5.30;;;1.25;;
72319;SDS011;60269;52.502;16.732;2023-01-15T09:03:52;4.17;;;0.90;;
72319;SDS011;60269;52.502;16.732;2023-01-15T09:07:24;2.25;;;0.40;;
72319;SDS011;60269;52.502;16.732;2023-01-15T09:10:56;1.55;;;0.22;;
72319;SDS011;60269;52.502;16.732;2023-01-15T09:14:33;0.97;;;0.20;;
72319;SDS011;60269;52.502;16.732;2023-01-15T09:18:25;4.13;;;0.73;;
72319;SDS011;60269;52.502;16.732;2023-01-15T09:21:57;3.67;;;0.60;;
72319;SDS011;60269;52.502;16.732;2023-01-15T09:25:29;2.70;;;0.60;;
72319;SDS011;60269;52.502;16.732;2023-01-15T09:29:01;3.53;;;0.40;;
72319;SDS011;60269;52.502;16.732;2023-01-15T09:32:35;5.72;;;0.50;;
72319;SDS011;60269;52.502;16.732;2023-01-15T09:36:14;4.53;;;0.68;;
72319;SDS011;60269;52.502;16.732;2023-01-15T09:39:47;3.53;;;0.50;;
72319;SDS011;60269;52.502;16.732;2023-01-15T09:47:35;2.83;;;0.35;;
72319;SDS011;60269;52.502;16.732;2023-01-15T09:51:27;6.17;;;1.00;;
72319;SDS011;60269;52.502;16.732;2023-01-15T09:55:20;3.10;;;0.57;;
72319;SDS011;60269;52.502;16.732;2023-01-15T09:58:57;4.47;;;0.80;;
72319;SDS011;60269;52.502;16.732;2023-01-15T10:10:08;2.13;;;0.30;;
72319;SDS011;60269;52.502;16.732;2023-01-15T10:13:44;2.65;;;0.30;;
72319;SDS011;60269;52.502;16.732;2023-01-15T10:17:24;4.17;;;0.50;;
72319;SDS011;60269;52.502;16.732;2023-01-15T10:24:36;3.00;;;0.50;;
72319;SDS011;60269;52.502;16.732;2023-01-15T10:28:24;3.93;;;0.70;;
72319;SDS011;60269;52.502;16.732;2023-01-15T10:35:55;1.35;;;0.20;;
72319;SDS011;60269;52.502;16.732;2023-01-15T10:46:57;1.50;;;0.28;;
72319;SDS011;60269;52.502;16.732;2023-01-15T10:50:32;2.13;;;0.20;;
72319;SDS011;60269;52.502;16.732;2023-01-15T11:01:42;1.55;;;0.30;;
72319;SDS011;60269;52.502;16.732;2023-01-15T11:05:17;6.00;;;0.40;;
72319;SDS011;60269;52.502;16.732;2023-01-15T11:08:54;1.15;;;0.10;;
72319;SDS011;60269;52.502;16.732;2023-01-15T11:13:12;0.40;;;0.10;;
72319;SDS011;60269;52.502;16.732;2023-01-15T11:17:09;4.50;;;0.30;;
72319;SDS011;60269;52.502;16.732;2023-01-15T11:21:08;2.47;;;0.40;;
72319;SDS011;60269;52.502;16.732;2023-01-15T11:24:52;3.05;;;0.70;;
72319;SDS011;60269;52.502;16.732;2023-01-15T11:28:29;1.50;;;0.20;;
72319;SDS011;60269;52.502;16.732;2023-01-15T11:32:17;1.03;;;0.17;;
72319;SDS011;60269;52.502;16.732;2023-01-15T11:36:00;1.48;;;0.20;;
72319;SDS011;60269;52.502;16.732;2023-01-15T11:39:36;2.97;;;0.20;;
72319;SDS011;60269;52.502;16.732;2023-01-15T11:43:41;2.67;;;0.30;;
72319;SDS011;60269;52.502;16.732;2023-01-15T11:47:25;3.05;;;0.32;;
72319;SDS011;60269;52.502;16.732;2023-01-15T11:51:15;2.30;;;0.50;;
72319;SDS011;60269;52.502;16.732;2023-01-15T11:54:49;6.20;;;0.40;;
72319;SDS011;60269;52.502;16.732;2023-01-15T11:58:23;2.75;;;0.35;;
72319;SDS011;60269;52.502;16.732;2023-01-15T12:02:01;3.35;;;0.30;;
72319;SDS011;60269;52.502;16.732;2023-01-15T12:05:58;1.67;;;0.47;;
72319;SDS011;60269;52.502;16.732;2023-01-15T12:13:49;2.70;;;0.40;;
72319;SDS011;60269;52.502;16.732;2023-01-15T12:17:45;4.20;;;0.40;;
72319;SDS011;60269;52.502;16.732;2023-01-15T12:25:27;2.13;;;0.25;;
72319;SDS011;60269;52.502;16.732;2023-01-15T12:33:14;1.30;;;0.17;;
72319;SDS011;60269;52.502;16.732;2023-01-15T12:37:08;4.15;;;0.47;;
72319;SDS011;60269;52.502;16.732;2023-01-15T12:40:48;2.92;;;0.20;;
72319;SDS011;60269;52.502;16.732;2023-01-15T12:48:50;5.13;;;1.00;;
72319;SDS011;60269;52.502;16.732;2023-01-15T12:52:30;5.95;;;0.45;;
72319;SDS011;60269;52.502;16.732;2023-01-15T12:56:24;5.13;;;0.63;;
72319;SDS011;60269;52.502;16.732;2023-01-15T13:00:09;1.60;;;0.30;;
72319;SDS011;60269;52.502;16.732;2023-01-15T13:11:09;3.33;;;0.40;;
72319;SDS011;60269;52.502;16.732;2023-01-15T13:14:43;3.03;;;0.50;;
72319;SDS011;60269;52.502;16.732;2023-01-15T13:18:30;1.70;;;0.40;;
72319;SDS011;60269;52.502;16.732;2023-01-15T13:22:24;2.10;;;0.20;;
72319;SDS011;60269;52.502;16.732;2023-01-15T13:26:14;1.53;;;0.37;;
72319;SDS011;60269;52.502;16.732;2023-01-15T13:38:19;5.50;;;0.97;;
72319;SDS011;60269;52.502;16.732;2023-01-15T13:41:54;4.30;;;0.75;;
72319;SDS011;60269;52.502;16.732;2023-01-15T13:45:48;3.28;;;0.80;;
72319;SDS011;60269;52.502;16.732;2023-01-15T13:49:28;7.20;;;1.47;;
72319;SDS011;60269;52.502;16.732;2023-01-15T13:53:21;4.93;;;1.05;;
72319;SDS011;60269;52.502;16.732;2023-01-15T13:57:05;9.05;;;1.10;;
72319;SDS011;60269;52.502;16.732;2023-01-15T14:01:05;3.22;;;0.57;;
72319;SDS011;60269;52.502;16.732;2023-01-15T14:04:53;5.70;;;1.17;;
72319;SDS011;60269;52.502;16.732;2023-01-15T14:08:27;4.85;;;1.10;;
72319;SDS011;60269;52.502;16.732;2023-01-15T14:12:33;5.60;;;1.20;;
72319;SDS011;60269;52.502;16.732;2023-01-15T14:16:31;7.43;;;1.33;;
72319;SDS011;60269;52.502;16.732;2023-01-15T14:36:10;2.20;;;0.60;;
72319;SDS011;60269;52.502;16.732;2023-01-15T14:39:52;4.03;;;0.77;;
72319;SDS011;60269;52.502;16.732;2023-01-15T14:43:30;4.37;;;0.90;;
72319;SDS011;60269;52.502;16.732;2023-01-15T14:47:10;4.30;;;0.65;;
72319;SDS011;60269;52.502;16.732;2023-01-15T14:50:52;5.28;;;1.23;;
72319;SDS011;60269;52.502;16.732;2023-01-15T14:54:25;5.73;;;1.00;;
72319;SDS011;60269;52.502;16.732;2023-01-15T14:58:03;5.32;;;0.65;;
72319;SDS011;60269;52.502;16.732;2023-01-15T15:01:43;5.43;;;0.85;;
72319;SDS011;60269;52.502;16.732;2023-01-15T15:05:17;4.17;;;0.80;;
72319;SDS011;60269;52.502;16.732;2023-01-15T15:08:52;3.35;;;0.65;;
72319;SDS011;60269;52.502;16.732;2023-01-15T15:12:47;3.50;;;0.80;;
72319;SDS011;60269;52.502;16.732;2023-01-15T15:16:26;4.93;;;1.15;;
72319;SDS011;60269;52.502;16.732;2023-01-15T15:20:06;4.63;;;1.00;;
72319;SDS011;60269;52.502;16.732;2023-01-15T15:24:02;6.43;;;1.13;;
72319;SDS011;60269;52.502;16.732;2023-01-15T15:27:41;7.35;;;1.40;;
72319;SDS011;60269;52.502;16.732;2023-01-15T15:31:13;7.87;;;1.40;;
72319;SDS011;60269;52.502;16.732;2023-01-15T15:34:46;5.47;;;1.45;;
72319;SDS011;60269;52.502;16.732;2023-01-15T15:38:22;6.05;;;1.23;;
72319;SDS011;60269;52.502;16.732;2023-01-15T15:41:56;5.70;;;1.00;;
72319;SDS011;60269;52.502;16.732;2023-01-15T15:45:51;7.05;;;1.10;;
72319;SDS011;60269;52.502;16.732;2023-01-15T15:49:44;10.73;;;1.33;;
72319;SDS011;60269;52.502;16.732;2023-01-15T15:53:17;5.72;;;1.33;;
72319;SDS011;60269;52.502;16.732;2023-01-15T15:56:57;5.17;;;0.70;;
72319;SDS011;60269;52.502;16.732;2023-01-15T16:00:34;5.38;;;1.23;;
72319;SDS011;60269;52.502;16.732;2023-01-15T16:04:15;6.05;;;1.98;;
72319;SDS011;60269;52.502;16.732;2023-01-15T16:07:50;1.83;;;0.37;;
72319;SDS011;60269;52.502;16.732;2023-01-15T16:11:23;4.57;;;1.08;;
72319;SDS011;60269;52.502;16.732;2023-01-15T16:14:56;3.05;;;0.77;;
72319;SDS011;60269;52.502;16.732;2023-01-15T16:18:42;5.17;;;1.00;;
72319;SDS011;60269;52.502;16.732;2023-01-15T16:22:16;4.03;;;1.33;;
72319;SDS011;60269;52.502;16.732;2023-01-15T16:25:55;3.70;;;0.73;;
72319;SDS011;60269;52.502;16.732;2023-01-15T16:29:49;4.45;;;0.88;;
72319;SDS011;60269;52.502;16.732;2023-01-15T16:33:23;6.97;;;1.43;;
72319;SDS011;60269;52.502;16.732;2023-01-15T16:36:56;4.60;;;1.17;;
72319;SDS011;60269;52.502;16.732;2023-01-15T16:40:37;2.70;;;0.70;;
72319;SDS011;60269;52.502;16.732;2023-01-15T16:44:21;5.10;;;1.30;;
72319;SDS011;60269;52.502;16.732;2023-01-15T16:51:39;4.85;;;1.30;;
72319;SDS011;60269;52.502;16.732;2023-01-15T16:59:05;5.40;;;1.02;;
72319;SDS011;60269;52.502;16.732;2023-01-15T17:02:46;4.40;;;0.95;;
72319;SDS011;60269;52.502;16.732;2023-01-15T17:06:23;5.80;;;0.80;;
72319;SDS011;60269;52.502;16.732;2023-01-15T17:09:58;6.37;;;1.53;;
72319;SDS011;60269;52.502;16.732;2023-01-15T17:13:35;5.85;;;1.65;;
72319;SDS011;60269;52.502;16.732;2023-01-15T17:20:52;11.13;;;2.10;;
72319;SDS011;60269;52.502;16.732;2023-01-15T17:24:24;5.28;;;1.58;;
72319;SDS011;60269;52.502;16.732;2023-01-15T17:27:57;4.47;;;1.17;;
72319;SDS011;60269;52.502;16.732;2023-01-15T17:31:31;4.73;;;1.20;;
72319;SDS011;60269;52.502;16.732;2023-01-15T17:35:04;4.22;;;1.08;;
72319;SDS011;60269;52.502;16.732;2023-01-15T17:38:38;7.25;;;1.10;;
72319;SDS011;60269;52.502;16.732;2023-01-15T17:42:11;5.45;;;1.40;;
72319;SDS011;60269;52.502;16.732;2023-01-15T17:45:45;5.67;;;1.40;;
72319;SDS011;60269;52.502;16.732;2023-01-15T17:49:17;7.53;;;2.00;;
72319;SDS011;60269;52.502;16.732;2023-01-15T17:52:49;6.82;;;1.38;;
72319;SDS011;60269;52.502;16.732;2023-01-15T17:56:21;4.67;;;0.70;;
72319;SDS011;60269;52.502;16.732;2023-01-15T18:00:12;4.18;;;1.17;;
72319;SDS011;60269;52.502;16.732;2023-01-15T18:04:04;3.83;;;0.82;;
72319;SDS011;60269;52.502;16.732;2023-01-15T18:08:04;3.90;;;0.90;;
72319;SDS011;60269;52.502;16.732;2023-01-15T18:11:39;2.78;;;0.45;;
72319;SDS011;60269;52.502;16.732;2023-01-15T18:15:11;4.95;;;0.45;;
72319;SDS011;60269;52.502;16.732;2023-01-15T18:18:43;5.97;;;1.52;;
72319;SDS011;60269;52.502;16.732;2023-01-15T18:22:18;2.57;;;0.43;;
72319;SDS011;60269;52.502;16.732;2023-01-15T18:25:50;4.32;;;0.90;;
72319;SDS011;60269;52.502;16.732;2023-01-15T18:29:22;10.25;;;1.08;;
72319;SDS011;60269;52.502;16.732;2023-01-15T18:32:54;5.30;;;1.13;;
72319;SDS011;60269;52.502;16.732;2023-01-15T18:36:26;5.03;;;0.68;;
72319;SDS011;60269;52.502;16.732;2023-01-15T18:39:59;6.03;;;0.95;;
72319;SDS011;60269;52.502;16.732;2023-01-15T18:43:31;5.47;;;1.00;;
72319;SDS011;60269;52.502;16.732;2023-01-15T18:47:23;5.35;;;1.20;;
72319;SDS011;60269;52.502;16.732;2023-01-15T18:50:56;6.63;;;1.25;;
72319;SDS011;60269;52.502;16.732;2023-01-15T18:54:30;3.42;;;1.20;;
72319;SDS011;60269;52.502;16.732;2023-01-15T18:58:02;4.87;;;0.87;;
72319;SDS011;60269;52.502;16.732;2023-01-15T19:01:35;4.75;;;0.50;;
72319;SDS011;60269;52.502;16.732;2023-01-15T19:05:08;8.38;;;1.00;;
72319;SDS011;60269;52.502;16.732;2023-01-15T19:08:45;1.07;;;0.47;;
72319;SDS011;60269;52.502;16.732;2023-01-15T19:12:17;6.43;;;1.10;;
72319;SDS011;60269;52.502;16.732;2023-01-15T19:15:51;2.67;;;1.10;;
72319;SDS011;60269;52.502;16.732;2023-01-15T19:19:42;3.87;;;0.90;;
72319;SDS011;60269;52.502;16.732;2023-01-15T19:23:14;3.88;;;0.73;;
72319;SDS011;60269;52.502;16.732;2023-01-15T19:26:46;2.72;;;0.20;;
72319;SDS011;60269;52.502;16.732;2023-01-15T19:30:18;3.60;;;0.35;;
72319;SDS011;60269;52.502;16.732;2023-01-15T19:33:50;3.20;;;0.50;;
72319;SDS011;60269;52.502;16.732;2023-01-15T19:37:23;2.72;;;0.30;;
72319;SDS011;60269;52.502;16.732;2023-01-15T19:40:56;1.77;;;0.30;;
72319;SDS011;60269;52.502;16.732;2023-01-15T19:44:48;2.10;;;0.93;;
72319;SDS011;60269;52.502;16.732;2023-01-15T19:48:39;4.72;;;0.77;;
72319;SDS011;60269;52.502;16.732;2023-01-15T19:52:30;2.40;;;0.45;;
72319;SDS011;60269;52.502;16.732;2023-01-15T19:56:05;3.50;;;0.80;;
72319;SDS011;60269;52.502;16.732;2023-01-15T19:59:39;2.28;;;0.25;;
72319;SDS011;60269;52.502;16.732;2023-01-15T20:03:12;3.83;;;0.73;;
72319;SDS011;60269;52.502;16.732;2023-01-15T20:06:44;3.55;;;0.55;;
72319;SDS011;60269;52.502;16.732;2023-01-15T20:10:17;3.30;;;0.67;;
72319;SDS011;60269;52.502;16.732;2023-01-15T20:13:51;3.20;;;0.70;;
72319;SDS011;60269;52.502;16.732;2023-01-15T20:17:26;3.60;;;0.50;;
72319;SDS011;60269;52.502;16.732;2023-01-15T20:20:59;2.53;;;0.43;;
72319;SDS011;60269;52.502;16.732;2023-01-15T20:24:31;1.23;;;0.20;;
72319;SDS011;60269;52.502;16.732;2023-01-15T20:28:04;4.70;;;0.60;;
72319;SDS011;60269;52.502;16.732;2023-01-15T20:31:36;3.40;;;0.43;;
72319;SDS011;60269;52.502;16.732;2023-01-15T20:35:10;2.08;;;0.20;;
72319;SDS011;60269;52.502;16.732;2023-01-15T20:38:45;2.97;;;0.40;;
72319;SDS011;60269;52.502;16.732;2023-01-15T20:42:18;2.42;;;0.40;;
72319;SDS011;60269;52.502;16.732;2023-01-15T20:46:11;3.80;;;0.70;;
72319;SDS011;60269;52.502;16.732;2023-01-15T20:49:48;3.85;;;0.40;;
72319;SDS011;60269;52.502;16.732;2023-01-15T20:53:20;6.40;;;0.60;;
72319;SDS011;60269;52.502;16.732;2023-01-15T20:56:52;3.23;;;0.50;;
72319;SDS011;60269;52.502;16.732;2023-01-15T21:00:25;0.63;;;0.10;;
72319;SDS011;60269;52.502;16.732;2023-01-15T21:03:58;1.05;;;0.20;;
72319;SDS011;60269;52.502;16.732;2023-01-15T21:07:30;1.30;;;0.30;;
72319;SDS011;60269;52.502;16.732;2023-01-15T21:11:03;3.03;;;0.40;;
72319;SDS011;60269;52.502;16.732;2023-01-15T21:14:35;3.33;;;0.50;;
72319;SDS011;60269;52.502;16.732;2023-01-15T21:18:07;2.83;;;0.35;;
72319;SDS011;60269;52.502;16.732;2023-01-15T21:21:39;2.23;;;0.30;;
72319;SDS011;60269;52.502;16.732;2023-01-15T21:25:12;3.50;;;0.50;;
72319;SDS011;60269;52.502;16.732;2023-01-15T21:28:44;3.72;;;0.55;;
72319;SDS011;60269;52.502;16.732;2023-01-15T21:32:17;4.90;;;0.50;;
72319;SDS011;60269;52.502;16.732;2023-01-15T21:35:49;3.58;;;0.38;;
72319;SDS011;60269;52.502;16.732;2023-01-15T21:39:25;2.55;;;0.45;;
72319;SDS011;60269;52.502;16.732;2023-01-15T21:42:57;2.77;;;0.30;;
72319;SDS011;60269;52.502;16.732;2023-01-15T21:46:48;2.85;;;0.30;;
72319;SDS011;60269;52.502;16.732;2023-01-15T21:50:20;3.95;;;0.63;;
72319;SDS011;60269;52.502;16.732;2023-01-15T21:53:52;2.35;;;0.57;;
72319;SDS011;60269;52.502;16.732;2023-01-15T21:57:28;1.87;;;0.30;;
72319;SDS011;60269;52.502;16.732;2023-01-15T22:01:05;1.55;;;0.20;;
72319;SDS011;60269;52.502;16.732;2023-01-15T22:04:39;2.00;;;0.20;;
72319;SDS011;60269;52.502;16.732;2023-01-15T22:08:11;2.20;;;0.73;;
72319;SDS011;60269;52.502;16.732;2023-01-15T22:11:43;1.85;;;0.40;;
72319;SDS011;60269;52.502;16.732;2023-01-15T22:15:15;2.20;;;0.38;;
72319;SDS011;60269;52.502;16.732;2023-01-15T22:18:47;0.83;;;0.20;;
72319;SDS011;60269;52.502;16.732;2023-01-15T22:22:19;5.90;;;0.52;;
72319;SDS011;60269;52.502;16.732;2023-01-15T22:25:52;0.82;;;0.10;;
72319;SDS011;60269;52.502;16.732;2023-01-15T22:29:25;1.27;;;0.20;;
72319;SDS011;60269;52.502;16.732;2023-01-15T22:33:02;2.03;;;0.27;;
72319;SDS011;60269;52.502;16.732;2023-01-15T22:36:34;12.57;;;0.55;;
72319;SDS011;60269;52.502;16.732;2023-01-15T22:40:06;0.28;;;0.05;;
72319;SDS011;60269;52.502;16.732;2023-01-15T22:43:39;1.30;;;0.10;;
72319;SDS011;60269;52.502;16.732;2023-01-15T22:47:11;1.65;;;0.20;;
72319;SDS011;60269;52.502;16.732;2023-01-15T22:50:43;3.28;;;0.50;;
72319;SDS011;60269;52.502;16.732;2023-01-15T22:54:15;1.03;;;0.30;;
72319;SDS011;60269;52.502;16.732;2023-01-15T22:57:49;0.20;;;0.00;;
72319;SDS011;60269;52.502;16.732;2023-01-15T23:01:22;1.25;;;0.17;;
72319;SDS011;60269;52.502;16.732;2023-01-15T23:04:55;1.40;;;0.28;;
72319;SDS011;60269;52.502;16.732;2023-01-15T23:08:26;0.70;;;0.10;;
72319;SDS011;60269;52.502;16.732;2023-01-15T23:12:02;0.65;;;0.10;;
72319;SDS011;60269;52.502;16.732;2023-01-15T23:15:34;1.90;;;0.40;;
72319;SDS011;60269;52.502;16.732;2023-01-15T23:19:07;0.90;;;0.10;;
72319;SDS011;60269;52.502;16.732;2023-01-15T23:22:39;1.92;;;0.20;;